Trego, Montana
Current Conditions -  °F | °C
As of 9:55 PM on Wednesday 22 Oct 2014 (Local Time) from KGPI Reporting Station
Overcast Overcast  
Wind Chill: 54°   Ceiling: 7500
Heat Index: 54°   Visibility: 10mi
Dew Point: 38°   Wind: 6mph
Humidity: 55%   Direction: 180°S
Pressure: 29.84"   Gusts: NA
Location:  48.71°N, 114.87°W
Report Text: KGPI 230355Z 18005KT 10SM OVC075 12/03 A2984 RMK AO2 SLP109 T01220033
Loading
Personal Weather Stations






























Interactive Weather Map
Tropical Storm Tracking
New forecast layout! Learn more

10-Day Weather Forecast

Advertisements
Track Severe Weather on mobile